aviador You're here:

UBBG Decoded Metar

GYANDZHA in RUSSIA
Report Time2018-04-21 07:30:00
UTC Time2018-04-21 08:00:09
Flight Rules vfr VFR
Wind300° at 04 kt
W.Decomp.*RWY 30: 4.0 kt HW 0.3 kt LCW
W.Rank300° ranks 1
Current wind is below 300° avg. (9.9)
Visibility9999 m
Phenomena:N/A
Clouds:Overcast 067 Hf
Expected CloudBase > 2,400 ft AGL from Temp-Dew spread
Ceiling6,700 ft
Temp13°C (ISA 0)
Dew Point07°C (67% RH)
AAT10.9°C
QNH1010 hPa
Density Alt1,342 ft
Elevation1,083 ft
Report Wrong Elevation
Raw Report
UBBG 210730Z 30004KT 9999 OVC067 13/07 Q1010 R30/190065 NOSIG=

Extra information for UBBG:More info

Metar Taf Metar & Taf Last 4 Metars F.Rules Stats Wind Profile Meteogram Temp Stats Airport Information Weather charts Add Link Nearby VenuesMetar ALERT Operation Metar Decoded Social comments